createdAt,value
2022-08-26T00:01:07.491Z,10.67
2022-08-26T00:04:10.278Z,10.80
2022-08-26T00:07:12.133Z,11.18
2022-08-26T00:10:17.297Z,10.25
2022-08-26T00:13:22.015Z,10.25
2022-08-26T00:16:28.336Z,10.50
2022-08-26T00:19:30.136Z,10.10
2022-08-26T00:22:31.766Z,10.73
2022-08-26T00:25:33.512Z,10.60
2022-08-26T00:28:35.488Z,10.80
2022-08-26T00:31:37.890Z,10.57
2022-08-26T00:34:40.651Z,10.27
2022-08-26T00:37:43.234Z,10.13
2022-08-26T00:40:50.368Z,10.25
2022-08-26T00:43:52.646Z,9.80
2022-08-26T00:47:00.083Z,10.23
2022-08-26T00:50:07.376Z,9.80
2022-08-26T00:53:23.982Z,10.23
2022-08-26T00:56:41.106Z,10.45
2022-08-26T00:59:46.484Z,11.00
2022-08-26T01:02:50.569Z,9.97
2022-08-26T01:05:56.152Z,10.10
2022-08-26T01:08:58.325Z,10.38
2022-08-26T01:12:02.962Z,10.23
2022-08-26T01:15:05.977Z,10.35
2022-08-26T01:18:08.711Z,11.10
2022-08-26T01:21:21.662Z,10.90
2022-08-26T01:24:27.606Z,10.52
2022-08-26T01:27:32.603Z,10.27
2022-08-26T01:30:40.439Z,10.57
2022-08-26T01:34:02.017Z,10.50
2022-08-26T01:37:03.722Z,10.48
2022-08-26T01:40:12.403Z,11.35
2022-08-26T01:43:19.616Z,10.48
2022-08-26T01:46:24.636Z,10.18
2022-08-26T01:49:55.709Z,10.23
2022-08-26T01:53:00.908Z,10.50
2022-08-26T01:56:03.988Z,10.25
2022-08-26T01:59:10.728Z,10.48
2022-08-26T02:02:13.947Z,10.00
2022-08-26T02:05:19.339Z,10.97
2022-08-26T02:08:26.075Z,10.60
2022-08-26T02:11:28.383Z,10.68
2022-08-26T02:14:35.049Z,10.90
2022-08-26T02:17:47.257Z,10.90
2022-08-26T02:20:54.233Z,10.87
2022-08-26T02:23:56.467Z,10.73
2022-08-26T02:27:01.473Z,11.32
2022-08-26T02:30:11.210Z,11.13
2022-08-26T02:33:13.318Z,11.63
2022-08-26T02:36:20.876Z,11.27
2022-08-26T02:39:22.769Z,11.70
2022-08-26T02:42:24.496Z,11.45
2022-08-26T02:45:28.022Z,12.07
2022-08-26T02:48:30.311Z,11.32
2022-08-26T02:51:31.992Z,11.63
2022-08-26T02:54:34.958Z,11.93
2022-08-26T02:57:37.642Z,11.63
2022-08-26T03:00:52.531Z,12.23
2022-08-26T03:03:55.098Z,13.02
2022-08-26T03:06:57.054Z,12.13
2022-08-26T03:09:59.075Z,12.13
2022-08-26T03:13:05.146Z,11.90
2022-08-26T03:16:07.638Z,12.05
2022-08-26T03:19:09.656Z,13.00
2022-08-26T03:22:12.023Z,12.67
2022-08-26T03:25:17.011Z,12.80
2022-08-26T03:28:19.356Z,12.48
2022-08-26T03:31:21.516Z,12.50
2022-08-26T03:34:26.284Z,13.38
2022-08-26T03:37:28.020Z,12.97
2022-08-26T03:40:29.811Z,12.63
2022-08-26T03:43:31.472Z,14.10
2022-08-26T03:46:33.635Z,12.90
2022-08-26T03:49:35.927Z,13.00
2022-08-26T03:52:43.025Z,13.47
2022-08-26T03:55:47.651Z,12.73
2022-08-26T03:58:54.211Z,12.93
2022-08-26T04:01:55.864Z,13.82
2022-08-26T04:04:57.684Z,14.40
2022-08-26T04:07:59.551Z,13.73
2022-08-26T04:11:01.611Z,13.90
2022-08-26T04:14:07.286Z,13.55
2022-08-26T04:17:08.936Z,13.07
2022-08-26T04:20:13.928Z,12.98
2022-08-26T04:23:17.872Z,13.40
2022-08-26T04:26:21.188Z,13.57
2022-08-26T04:29:26.528Z,13.30
2022-08-26T04:32:28.583Z,13.45
2022-08-26T04:35:31.428Z,14.13
2022-08-26T04:38:34.487Z,13.27
2022-08-26T04:41:36.926Z,13.68
2022-08-26T04:44:38.565Z,13.18
2022-08-26T04:47:41.184Z,13.45
2022-08-26T04:51:29.767Z,13.80
2022-08-26T04:54:31.515Z,13.47
2022-08-26T04:57:33.678Z,13.40
2022-08-26T05:00:36.055Z,13.80
2022-08-26T05:08:14.974Z,14.65
2022-08-26T05:11:17.202Z,13.83
2022-08-26T05:14:22.233Z,13.70
2022-08-26T05:17:27.299Z,13.93
2022-08-26T05:20:28.965Z,13.23
2022-08-26T05:23:34.066Z,14.10
2022-08-26T05:26:36.176Z,13.50
2022-08-26T05:29:37.870Z,13.20
2022-08-26T05:32:39.566Z,13.20
2022-08-26T05:35:43.075Z,12.63
2022-08-26T05:38:44.918Z,12.73
2022-08-26T05:41:46.826Z,13.00
2022-08-26T05:44:55.412Z,12.90
2022-08-26T05:47:57.975Z,12.57
2022-08-26T05:51:04.972Z,12.50
2022-08-26T05:54:10.326Z,13.32
2022-08-26T05:57:13.877Z,12.17
2022-08-26T06:00:16.272Z,12.80
2022-08-26T06:03:18.847Z,12.35
2022-08-26T06:06:27.584Z,12.18
2022-08-26T06:09:30.823Z,12.27
2022-08-26T06:12:33.762Z,12.30
2022-08-26T06:15:39.728Z,11.93
2022-08-26T06:18:46.415Z,11.65
2022-08-26T06:21:51.313Z,11.90
2022-08-26T06:25:15.407Z,11.40
2022-08-26T06:28:17.540Z,11.70
2022-08-26T06:31:19.879Z,11.60
2022-08-26T06:34:22.532Z,11.65
2022-08-26T06:37:28.314Z,12.18
2022-08-26T06:40:31.328Z,12.02
2022-08-26T06:43:33.160Z,12.10
2022-08-26T06:46:35.378Z,11.40
2022-08-26T06:49:37.341Z,12.00
2022-08-26T06:52:42.445Z,11.55
2022-08-26T06:55:46.211Z,11.43
2022-08-26T06:58:48.703Z,11.50
2022-08-26T07:01:50.402Z,11.07
2022-08-26T07:04:52.061Z,11.65
2022-08-26T07:07:58.451Z,11.57
2022-08-26T07:11:05.619Z,10.98
2022-08-26T07:14:07.717Z,11.47
2022-08-26T07:17:13.759Z,11.53
2022-08-26T07:20:16.061Z,11.77
2022-08-26T07:23:18.758Z,11.95
2022-08-26T07:26:24.893Z,11.40
2022-08-26T07:29:26.663Z,11.27
2022-08-26T07:32:28.536Z,10.87
2022-08-26T07:35:30.206Z,10.60
2022-08-26T07:38:33.842Z,10.73
2022-08-26T07:41:36.652Z,10.75
2022-08-26T07:44:39.712Z,12.07
2022-08-26T07:47:42.450Z,11.37
2022-08-26T07:50:50.505Z,11.68
2022-08-26T07:53:53.389Z,10.77
2022-08-26T07:56:55.893Z,10.90
2022-08-26T07:59:58.064Z,11.60
2022-08-26T08:03:01.363Z,11.87
2022-08-26T08:06:03.101Z,11.82
2022-08-26T08:09:05.115Z,11.82
2022-08-26T08:12:09.524Z,11.43
2022-08-26T08:15:17.108Z,11.40
2022-08-26T08:18:20.351Z,11.43
2022-08-26T08:21:26.536Z,11.48
2022-08-26T08:24:28.584Z,11.77
2022-08-26T08:27:33.622Z,12.27
2022-08-26T08:30:39.154Z,11.90
2022-08-26T08:33:40.814Z,11.70
2022-08-26T08:36:42.847Z,11.18
2022-08-26T08:39:45.459Z,11.60
2022-08-26T08:42:59.221Z,11.30
2022-08-26T08:46:07.750Z,11.03
2022-08-26T08:49:11.080Z,9.50
2022-08-26T08:52:31.132Z,9.35
2022-08-26T08:55:41.996Z,9.65
2022-08-26T08:58:46.561Z,10.00
2022-08-26T09:01:59.868Z,9.57
2022-08-26T09:05:20.057Z,9.17
2022-08-26T09:08:27.469Z,9.00
2022-08-26T09:11:30.402Z,9.15
2022-08-26T09:14:32.018Z,8.57
2022-08-26T09:17:51.899Z,8.50
2022-08-26T09:20:59.356Z,8.87
2022-08-26T09:24:01.126Z,9.00
2022-08-26T09:27:02.734Z,9.10
2022-08-26T09:30:11.481Z,9.10
2022-08-26T09:33:18.811Z,7.80
2022-08-26T09:36:35.389Z,8.17
2022-08-26T09:39:40.831Z,8.00
2022-08-26T09:42:42.933Z,8.00
2022-08-26T09:45:50.630Z,7.13
2022-08-26T09:48:53.272Z,8.00
2022-08-26T09:52:21.381Z,8.10
2022-08-26T09:55:23.732Z,8.13
2022-08-26T10:01:41.861Z,7.80
2022-08-26T10:04:52.101Z,7.90
2022-08-26T10:07:53.914Z,7.20
2022-08-26T10:10:58.949Z,6.45
2022-08-26T10:14:17.257Z,6.53
2022-08-26T10:17:46.981Z,6.32
2022-08-26T10:20:56.461Z,5.97
2022-08-26T10:24:02.026Z,6.90
2022-08-26T10:27:31.593Z,6.88
2022-08-26T10:30:42.954Z,7.20
2022-08-26T10:33:44.799Z,7.13
2022-08-26T10:37:15.919Z,6.40
2022-08-26T10:40:24.110Z,6.47
2022-08-26T10:43:30.388Z,6.85
2022-08-26T10:46:44.298Z,7.00
2022-08-26T10:49:49.472Z,6.95
2022-08-26T10:53:33.108Z,7.97
2022-08-26T10:56:49.888Z,8.20
2022-08-26T11:00:29.493Z,7.53
2022-08-26T11:03:50.675Z,7.72
2022-08-26T11:07:31.602Z,7.90
2022-08-26T11:10:44.856Z,7.57
2022-08-26T11:14:01.907Z,8.00
2022-08-26T11:17:11.836Z,7.80
2022-08-26T11:20:22.673Z,7.95
2022-08-26T11:23:28.201Z,7.70
2022-08-26T11:26:55.549Z,7.27
2022-08-26T11:30:00.600Z,7.23
2022-08-26T11:33:02.773Z,7.22
2022-08-26T11:36:11.532Z,7.60
2022-08-26T11:39:25.464Z,7.60
2022-08-26T11:42:41.690Z,7.40
2022-08-26T11:45:47.514Z,7.17
2022-08-26T11:48:49.349Z,7.22
2022-08-26T11:51:51.381Z,7.47
2022-08-26T11:55:14.331Z,7.30
2022-08-26T11:58:16.527Z,6.13
2022-08-26T12:01:39.934Z,6.60
2022-08-26T12:04:46.390Z,6.82
2022-08-26T12:07:50.942Z,6.15
2022-08-26T12:11:11.439Z,6.20
2022-08-26T12:14:22.400Z,6.20
2022-08-26T12:17:27.898Z,5.90
2022-08-26T12:20:48.837Z,5.75
2022-08-26T12:23:54.592Z,5.78
2022-08-26T12:27:30.914Z,6.07
2022-08-26T12:30:32.973Z,5.60
2022-08-26T12:33:36.369Z,5.90
2022-08-26T12:36:46.481Z,5.68
2022-08-26T12:39:49.164Z,6.10
2022-08-26T12:42:51.270Z,5.70
2022-08-26T12:45:58.401Z,5.40
2022-08-26T12:49:03.901Z,5.60
2022-08-26T12:52:07.616Z,5.68
2022-08-26T12:55:28.616Z,5.18
2022-08-26T12:58:33.084Z,5.50
2022-08-26T13:01:42.906Z,5.60
2022-08-26T13:04:46.149Z,4.87
2022-08-26T13:08:24.437Z,4.70
2022-08-26T13:11:26.070Z,6.00
2022-08-26T13:14:27.769Z,5.35
2022-08-26T13:17:30.661Z,5.73
2022-08-26T13:20:32.612Z,5.43
2022-08-26T13:23:34.423Z,5.80
2022-08-26T13:26:36.189Z,5.80
2022-08-26T13:29:38.260Z,5.80
2022-08-26T13:32:40.555Z,5.73
2022-08-26T13:35:44.510Z,5.70
2022-08-26T13:38:48.423Z,5.57
2022-08-26T13:41:54.380Z,5.70
2022-08-26T13:44:58.159Z,5.78
2022-08-26T13:48:00.487Z,5.70
2022-08-26T13:51:02.917Z,5.73
2022-08-26T13:54:09.926Z,5.90
2022-08-26T13:57:11.543Z,5.40
2022-08-26T14:00:15.145Z,5.65
2022-08-26T14:03:17.179Z,5.50
2022-08-26T14:06:19.300Z,6.00
2022-08-26T14:09:20.928Z,6.75
2022-08-26T14:12:22.813Z,7.15
2022-08-26T14:15:25.195Z,7.18
2022-08-26T14:18:33.348Z,7.90
2022-08-26T14:21:37.891Z,7.73
2022-08-26T14:24:39.537Z,7.60
2022-08-26T14:27:44.793Z,8.05
2022-08-26T14:30:53.210Z,7.75
2022-08-26T14:33:58.440Z,7.40
2022-08-26T14:37:07.659Z,7.57
2022-08-26T14:40:10.647Z,7.57
2022-08-26T14:43:15.203Z,7.53
2022-08-26T14:46:18.405Z,7.47
2022-08-26T14:49:21.816Z,7.80
2022-08-26T14:52:23.555Z,7.20
2022-08-26T14:55:26.334Z,7.97
2022-08-26T14:58:32.939Z,7.20
2022-08-26T15:01:37.112Z,7.30
2022-08-26T15:04:39.228Z,7.37
2022-08-26T15:07:41.118Z,7.50
2022-08-26T15:10:42.802Z,6.85
2022-08-26T15:13:45.799Z,6.60
2022-08-26T15:16:53.979Z,6.32
2022-08-26T15:19:55.643Z,6.77
2022-08-26T15:22:58.221Z,6.83
2022-08-26T15:26:04.373Z,6.43
2022-08-26T15:29:06.752Z,6.10
2022-08-26T15:32:08.653Z,6.45
2022-08-26T15:35:10.407Z,6.37
2022-08-26T15:38:12.918Z,6.87
2022-08-26T15:41:14.820Z,7.13
2022-08-26T15:44:18.453Z,6.68
2022-08-26T15:47:20.234Z,7.70
2022-08-26T15:50:22.202Z,6.80
2022-08-26T15:53:29.546Z,6.70
2022-08-26T15:56:34.445Z,6.75
2022-08-26T15:59:36.586Z,6.72
2022-08-26T16:02:38.478Z,6.47
2022-08-26T16:05:43.610Z,6.90
2022-08-26T16:08:45.964Z,6.97
2022-08-26T16:11:47.695Z,6.60
2022-08-26T16:14:52.689Z,7.10
2022-08-26T16:17:54.515Z,7.07
2022-08-26T16:21:13.381Z,7.27
2022-08-26T16:24:15.994Z,6.80
2022-08-26T16:27:17.698Z,6.82
2022-08-26T16:30:20.715Z,6.78
2022-08-26T16:33:29.170Z,7.20
2022-08-26T16:36:31.654Z,6.80
2022-08-26T16:39:33.361Z,6.97
2022-08-26T16:42:41.959Z,7.25
2022-08-26T16:45:43.595Z,7.10
2022-08-26T16:48:45.690Z,7.07
2022-08-26T16:51:47.528Z,7.40
2022-08-26T16:54:49.406Z,7.43
2022-08-26T16:57:51.503Z,7.07
2022-08-26T17:00:53.160Z,7.90
2022-08-26T17:03:54.924Z,9.23
2022-08-26T17:06:56.729Z,10.50
2022-08-26T17:09:58.928Z,8.70
2022-08-26T17:13:00.804Z,5.63
2022-08-26T17:16:04.233Z,6.05
2022-08-26T17:19:09.350Z,7.15
2022-08-26T17:22:12.153Z,7.83
2022-08-26T17:25:18.277Z,7.97
2022-08-26T17:28:19.914Z,8.15
2022-08-26T17:31:23.422Z,9.63
2022-08-26T17:34:26.424Z,9.00
2022-08-26T17:37:28.349Z,9.03
2022-08-26T17:40:31.686Z,7.53
2022-08-26T17:43:34.199Z,9.23
2022-08-26T17:46:38.424Z,9.43
2022-08-26T17:49:40.924Z,8.60
2022-08-26T17:52:44.018Z,7.60
2022-08-26T17:55:46.566Z,8.67
2022-08-26T17:58:51.250Z,8.27
2022-08-26T18:01:55.598Z,7.10
2022-08-26T18:04:58.056Z,6.85
2022-08-26T18:12:41.010Z,6.57
2022-08-26T18:15:45.432Z,7.35
2022-08-26T18:18:48.623Z,8.00
2022-08-26T18:21:50.402Z,8.20
2022-08-26T18:24:59.075Z,7.83
2022-08-26T18:28:01.189Z,7.57
2022-08-26T18:31:05.507Z,8.10
2022-08-26T18:34:07.614Z,7.40
2022-08-26T18:40:17.660Z,7.67
2022-08-26T18:43:19.493Z,8.03
2022-08-26T18:46:23.070Z,7.93
2022-08-26T18:49:24.832Z,7.93
2022-08-26T18:52:27.483Z,8.20
2022-08-26T18:55:29.065Z,8.47
2022-08-26T18:58:30.612Z,8.47
2022-08-26T19:01:34.266Z,8.68
2022-08-26T19:04:38.596Z,9.15
2022-08-26T19:07:40.373Z,8.82
2022-08-26T19:10:43.185Z,8.83
2022-08-26T19:13:45.346Z,8.90
2022-08-26T19:16:50.065Z,8.93
2022-08-26T19:19:53.533Z,8.50
2022-08-26T19:22:57.403Z,9.30
2022-08-26T19:26:04.800Z,7.83
2022-08-26T19:29:06.743Z,9.10
2022-08-26T19:32:08.797Z,9.10
2022-08-26T19:35:10.604Z,8.65
2022-08-26T19:38:12.354Z,8.10
2022-08-26T19:41:16.536Z,8.60
2022-08-26T19:44:39.316Z,8.77
2022-08-26T19:47:41.012Z,8.70
2022-08-26T19:50:46.072Z,8.63
2022-08-26T19:53:48.819Z,8.85
2022-08-26T19:56:51.064Z,8.60
2022-08-26T19:59:52.703Z,9.50
2022-08-26T20:02:55.507Z,8.80
2022-08-26T20:05:57.207Z,9.15
2022-08-26T20:08:58.879Z,9.18
2022-08-26T20:12:01.169Z,9.30
2022-08-26T20:15:05.127Z,9.53
2022-08-26T20:18:27.803Z,9.80
2022-08-26T20:21:35.545Z,10.07
2022-08-26T20:24:37.189Z,8.05
2022-08-26T20:27:38.871Z,6.70
2022-08-26T20:30:40.533Z,7.03
2022-08-26T20:33:46.435Z,7.60
2022-08-26T20:36:50.120Z,6.40
2022-08-26T20:39:51.813Z,6.38
2022-08-26T20:42:53.509Z,6.00
2022-08-26T20:45:55.419Z,6.55
2022-08-26T20:48:58.193Z,6.35
2022-08-26T20:52:00.358Z,6.53
2022-08-26T20:55:02.466Z,6.55
2022-08-26T20:58:04.242Z,7.07
2022-08-26T21:01:08.174Z,7.03
2022-08-26T21:04:14.035Z,7.35
2022-08-26T21:07:15.693Z,7.13
2022-08-26T21:10:19.590Z,6.93
2022-08-26T21:13:21.821Z,6.63
2022-08-26T21:16:23.548Z,6.90
2022-08-26T21:19:25.438Z,7.68
2022-08-26T21:22:28.232Z,7.53
2022-08-26T21:25:29.983Z,7.60
2022-08-26T21:28:31.745Z,7.53
2022-08-26T21:31:33.678Z,7.80
2022-08-26T21:34:35.442Z,7.88
2022-08-26T21:37:37.207Z,7.75
2022-08-26T21:40:38.814Z,7.38
2022-08-26T21:43:41.626Z,7.30
2022-08-26T21:46:45.510Z,7.85
2022-08-26T21:49:47.762Z,7.63
2022-08-26T21:52:49.495Z,7.40
2022-08-26T21:55:51.178Z,7.20
2022-08-26T21:58:55.020Z,6.67
2022-08-26T22:01:57.568Z,7.20
2022-08-26T22:04:59.217Z,7.20
2022-08-26T22:08:00.870Z,6.85
2022-08-26T22:11:02.840Z,6.95
2022-08-26T22:14:05.004Z,6.57
2022-08-26T22:17:06.740Z,6.60
2022-08-26T22:20:16.572Z,6.88
2022-08-26T22:23:20.215Z,6.70
2022-08-26T22:26:25.451Z,6.90
2022-08-26T22:29:27.644Z,6.73
2022-08-26T22:32:29.417Z,7.30
2022-08-26T22:35:31.392Z,7.05
2022-08-26T22:38:33.195Z,6.78
2022-08-26T22:41:35.355Z,7.40
2022-08-26T22:44:37.567Z,7.63
2022-08-26T22:47:40.252Z,7.80
2022-08-26T22:50:43.842Z,7.60
2022-08-26T22:53:45.796Z,8.25
2022-08-26T22:56:47.622Z,7.50
2022-08-26T22:59:49.282Z,7.83
2022-08-26T23:02:50.997Z,8.40
2022-08-26T23:05:52.799Z,7.88
2022-08-26T23:08:57.200Z,8.27
2022-08-26T23:11:58.910Z,8.57
2022-08-26T23:15:01.373Z,8.17
2022-08-26T23:18:03.803Z,8.90
2022-08-26T23:21:06.060Z,8.63
2022-08-26T23:24:11.036Z,8.18
2022-08-26T23:27:12.754Z,8.32
2022-08-26T23:30:18.799Z,7.80
2022-08-26T23:33:22.606Z,8.75
2022-08-26T23:36:24.576Z,8.27
2022-08-26T23:39:26.909Z,8.25
2022-08-26T23:42:29.042Z,8.68
2022-08-26T23:45:35.834Z,8.60
2022-08-26T23:48:37.740Z,8.25
2022-08-26T23:51:57.825Z,8.40
2022-08-26T23:54:59.445Z,8.48
2022-08-26T23:58:01.117Z,8.02
